Home   Weather   Spain   Sevilla   Past weeks
Flag for Spain

Past Weather in Sevilla, Seville, Spain — May 2018

Currently: 70 °F. Passing clouds. (Weather station: Sevilla / San Pablo, Spain). See more current weather

May 2018 Weather in Sevilla — Graph

°F

High & Low Weather Summary for May 2018

 TemperatureHumidityPressure
High84 °F (May 15, 6:30 pm)100% (May 1, 6:30 am)30.21 "Hg (May 1, 6:30 am)
Low46 °F (May 1, 6:30 am)20% (May 15, 6:30 pm)29.77 "Hg (May 16, 8:00 pm)
Average66 °F67%29.97 "Hg
* Reported May 1 12:00 am — May 31 11:30 pm, Sevilla. Weather by CustomWeather, © 2024

Note: Actual official high and low records may vary slightly from our data, if they occured in-between our weather recording intervals... More about our weather records

Sevilla Weather History for May 1, 2018

Scroll right to see more
 ConditionsComfort  
Time TempWeatherWind HumidityBarometerVisibility
12:00 am
Tue, May 1
54 °FPassing clouds.6 mph82%30.04 "HgN/A
12:30 am54 °FClear.8 mph82%30.04 "Hg10 mi
1:00 am52 °FPassing clouds.5 mph88%30.04 "HgN/A
1:30 am52 °FCool.3 mph88%30.04 "HgN/A
2:30 am52 °FCool.5 mph88%30.01 "HgN/A
3:30 am50 °FClear.2 mph94%30.01 "Hg10 mi
4:00 am50 °FClear.3 mph88%30.01 "Hg10 mi
4:30 am50 °FClear.5 mph88%30.01 "Hg10 mi
5:00 am48 °FClear.2 mph94%29.98 "Hg10 mi
5:30 am48 °FClear.No wind87%29.98 "Hg10 mi
6:00 am48 °FClear.2 mph94%29.98 "Hg10 mi
6:30 am46 °FClear.No wind100%29.98 "Hg10 mi
7:00 am46 °FClear.2 mph93%29.98 "Hg10 mi
7:30 am46 °FSunny.5 mph93%29.98 "Hg10 mi
8:00 am46 °FSunny.3 mph93%30.01 "Hg10 mi
8:30 am50 °FPassing clouds.3 mph94%30.01 "HgN/A
9:00 am50 °FSunny.No wind94%30.01 "Hg10 mi
9:30 am52 °FSunny.2 mph88%30.01 "Hg10 mi
10:00 am54 °FPassing clouds.5 mph82%30.01 "HgN/A
10:30 am54 °FPassing clouds.3 mph82%30.01 "HgN/A
11:00 am55 °FPassing clouds.5 mph77%30.01 "HgN/A
11:30 am57 °FPassing clouds.3 mph77%30.04 "HgN/A
12:00 pm57 °FPassing clouds.2 mph67%30.04 "HgN/A
12:30 pm59 °FPassing clouds.3 mph68%30.01 "HgN/A
1:00 pm61 °FPassing clouds.3 mph63%30.01 "HgN/A
1:30 pm63 °FScattered showers. Passing clouds.8 mph56%29.98 "HgN/A
2:00 pm63 °FScattered showers. Passing clouds.10 mph56%29.98 "HgN/A
2:30 pm64 °FScattered showers. Passing clouds.8 mph46%29.98 "HgN/A
3:00 pm63 °FThundershowers. Passing clouds.8 mph52%29.98 "HgN/A
3:30 pm61 °FThunderstorms. Scattered clouds.15 mph59%30.01 "HgN/A
3:44 pm54 °FRain showers. Broken clouds.18 mph77%30.04 "Hg4 mi
4:12 pm52 °FThunderstorms. Broken clouds.17 mph82%30.01 "HgN/A
4:30 pm54 °FScattered clouds.13 mph82%30.01 "HgN/A
5:00 pm59 °FPassing clouds.9 mph68%30.01 "HgN/A
5:30 pm61 °FPassing clouds.9 mph59%30.01 "HgN/A
7:00 pm63 °FSunny.No wind45%30.01 "Hg10 mi
7:30 pm63 °FPassing clouds.3 mph45%30.01 "HgN/A
8:00 pm63 °FSunny.1 mph49%30.01 "Hg10 mi
8:30 pm57 °FSunny.7 mph63%30.01 "Hg10 mi
9:00 pm57 °FSunny.6 mph67%30.01 "Hg10 mi
9:30 pm55 °FClear.5 mph72%30.01 "Hg10 mi
10:00 pm55 °FPassing clouds.3 mph67%30.01 "HgN/A
10:30 pm54 °FClear.5 mph72%30.01 "Hg10 mi
11:00 pm54 °FClear.5 mph77%30.04 "Hg10 mi
11:30 pm54 °FClear.3 mph77%30.04 "Hg10 mi
Weather by CustomWeather, © 2024

See weather overview